Oban — PDWJ — position and weather

sailwx.info

Track history (hours):
 
Tides and Currents Weather Stations Pressure Air Temp Water Temp Dewpoint Dewpoint Depression Visibility Wind Speed Wind Dir Waves Ship Positions

Oban

Last reported at 2017-Jan-18 17:28 UTC. Time now 2017-Jan-18 18:09 UTC.
Position N 52°34' E 005°55'.

Length 39 m; draft 2.8 m.

Type: Sailing vessel. MMSI: 246085000.

Date/timePositionNaut miles runAvg speedWind from/ knotsBaromVisibWave heightAir tempDewpointWater temp
2017-Jan-18 17:28N 52°34' E 005°55'0 0.0
2017-Jan-18 16:31N 52°34' E 005°55'0 0.0
2017-Jan-18 15:31N 52°34' E 005°55'0 0.0
2017-Jan-18 14:28N 52°34' E 005°55'0 0.0
2017-Jan-18 13:33N 52°34' E 005°55'0 0.0
2017-Jan-18 12:33N 52°34' E 005°55'0 0.0
2017-Jan-18 11:33N 52°34' E 005°55'6 5.8
2017-Jan-18 10:33N 52°35' E 005°46'5 4.8
2017-Jan-18 09:33N 52°37' E 005°38'2 2.2
2017-Jan-18 08:33N 52°39' E 005°36'1 0.8
2017-Jan-18 07:33N 52°39' E 005°36'0 0.0
2017-Jan-18 06:33N 52°39' E 005°36'0 0.0
2017-Jan-18 05:33N 52°39' E 005°36'0 0.0
2017-Jan-18 04:33N 52°39' E 005°36'0 0.0
2017-Jan-18 03:33N 52°39' E 005°36'0 0.0
2017-Jan-18 02:33N 52°39' E 005°36'0 0.0
2017-Jan-18 01:33N 52°39' E 005°36'0 0.0
2017-Jan-18 00:33N 52°39' E 005°36'0 0.0
2017-Jan-17 23:33N 52°39' E 005°36'0 0.0
2017-Jan-17 22:33N 52°39' E 005°36'0 0.0
2017-Jan-17 21:33N 52°39' E 005°36'0 0.0
2017-Jan-17 20:33N 52°39' E 005°36'0 0.0
2017-Jan-17 19:33N 52°39' E 005°36'0 0.0
2017-Jan-17 18:33N 52°39' E 005°36'0 0.0
2017-Jan-17 17:33N 52°39' E 005°36'2 1.5
2017-Jan-17 16:33N 52°39' E 005°33'7 6.9
2017-Jan-17 15:33N 52°43' E 005°24'7 6.7
2017-Jan-17 14:33N 52°49' E 005°18'7 6.9
2017-Jan-17 13:33N 52°56' E 005°19'7 6.7
2017-Jan-17 12:33N 53°03' E 005°21'2 2.2
2017-Jan-17 11:33N 53°05' E 005°20'5 5.4
2017-Jan-17 10:33N 53°10' E 005°23'5 5.2
2017-Jan-17 09:33N 53°13' E 005°17'6 6.4
2017-Jan-17 08:33N 53°18' E 005°10'8 7.2
2017-Jan-17 07:31N 53°20' E 004°58'0 0.1
2017-Jan-17 05:29N 53°20' E 004°57'0 0.0
2017-Jan-17 04:33N 53°20' E 004°57'2 2.3
2017-Jan-17 03:33N 53°22' E 004°59'4 4.3
2017-Jan-17 02:33N 53°25' E 005°04'12 3.8
2017-Jan-16 23:27N 53°30' E 005°22'9 4.3
2017-Jan-16 21:22N 53°33' E 005°37'35 7.2
2017-Jan-16 16:26N 53°36' E 006°36'910.2
2017-Jan-16 15:33N 53°30' E 006°48'8 8.5
2017-Jan-16 14:33N 53°24' E 006°57'6 5.8
2017-Jan-16 13:33N 53°20' E 007°04'4 4.2
2017-Jan-16 12:32N 53°20' E 007°11'2 0.1
2017-Jan-15 22:25N 53°22' E 007°12'0 0.0
2017-Jan-15 19:25N 53°22' E 007°12'0 0.0
2017-Jan-14 22:24N 53°22' E 007°12'0 0.0
2017-Jan-14 21:27N 53°22' E 007°12'0 0.0
2017-Jan-14 20:21N 53°22' E 007°12'0 0.0
2017-Jan-14 19:27N 53°22' E 007°12'0 0.0
2017-Jan-14 18:27N 53°22' E 007°12'0 0.0
2017-Jan-14 17:33N 53°22' E 007°12'0 0.0
2017-Jan-14 16:24N 53°22' E 007°12'0 0.0
2017-Jan-14 15:27N 53°22' E 007°12'0 0.0
2017-Jan-14 14:27N 53°22' E 007°12'0 0.0
2017-Jan-14 12:27N 53°22' E 007°12'0 0.0
2017-Jan-13 21:17N 53°22' E 007°12'0 0.0
2017-Jan-13 20:11N 53°22' E 007°12'0 0.0
2017-Jan-13 19:11N 53°22' E 007°12'0 0.0
2017-Jan-13 18:26N 53°22' E 007°12'0 0.0
2017-Jan-13 17:29N 53°22' E 007°12'0 0.0
2017-Jan-13 16:26N 53°22' E 007°12'  
2017-Jan-09 23:31N 53°22' E 007°12'0 0.0
2017-Jan-09 22:31N 53°22' E 007°12'0 0.0
2017-Jan-09 20:04N 53°22' E 007°12'0 0.0
2017-Jan-09 19:22N 53°22' E 007°12'0 0.0
2017-Jan-09 18:31N 53°22' E 007°12'0 0.0
2017-Jan-09 17:31N 53°22' E 007°12'0 0.0
2017-Jan-09 16:28N 53°22' E 007°12'0 0.0
2017-Jan-09 15:28N 53°22' E 007°12'0 0.0
2017-Jan-08 22:12N 53°22' E 007°12'0 0.0
2017-Jan-08 21:27N 53°22' E 007°12'0 0.0
2017-Jan-08 20:09N 53°22' E 007°12'0 0.0
2017-Jan-08 19:27N 53°22' E 007°12'  
Track history (hours):
 
Tides and Currents Weather Stations Pressure Air Temp Water Temp Dewpoint Dewpoint Depression Visibility Wind Speed Wind Dir Waves Ship Positions

Oban

Last reported at 2017-Jan-18 17:28 UTC. Time now 2017-Jan-18 18:09 UTC.
Position N 52°34' E 005°55'.

Length 39 m; draft 2.8 m.

Type: Sailing vessel. MMSI: 246085000.

Date/timePositionNaut miles runAvg speedWind from/ knotsBaromVisibWave heightAir tempDewpointWater temp
2017-Jan-18 17:28N 52°34' E 005°55'0 0.0
2017-Jan-18 16:31N 52°34' E 005°55'0 0.0
2017-Jan-18 15:31N 52°34' E 005°55'0 0.0
2017-Jan-18 14:28N 52°34' E 005°55'0 0.0
2017-Jan-18 13:33N 52°34' E 005°55'0 0.0
2017-Jan-18 12:33N 52°34' E 005°55'0 0.0
2017-Jan-18 11:33N 52°34' E 005°55'6 5.8
2017-Jan-18 10:33N 52°35' E 005°46'5 4.8
2017-Jan-18 09:33N 52°37' E 005°38'2 2.2
2017-Jan-18 08:33N 52°39' E 005°36'1 0.8
2017-Jan-18 07:33N 52°39' E 005°36'0 0.0
2017-Jan-18 06:33N 52°39' E 005°36'0 0.0
2017-Jan-18 05:33N 52°39' E 005°36'0 0.0
2017-Jan-18 04:33N 52°39' E 005°36'0 0.0
2017-Jan-18 03:33N 52°39' E 005°36'0 0.0
2017-Jan-18 02:33N 52°39' E 005°36'0 0.0
2017-Jan-18 01:33N 52°39' E 005°36'0 0.0
2017-Jan-18 00:33N 52°39' E 005°36'0 0.0
2017-Jan-17 23:33N 52°39' E 005°36'0 0.0
2017-Jan-17 22:33N 52°39' E 005°36'0 0.0
2017-Jan-17 21:33N 52°39' E 005°36'0 0.0
2017-Jan-17 20:33N 52°39' E 005°36'0 0.0
2017-Jan-17 19:33N 52°39' E 005°36'0 0.0
2017-Jan-17 18:33N 52°39' E 005°36'0 0.0
2017-Jan-17 17:33N 52°39' E 005°36'2 1.5
2017-Jan-17 16:33N 52°39' E 005°33'7 6.9
2017-Jan-17 15:33N 52°43' E 005°24'7 6.7
2017-Jan-17 14:33N 52°49' E 005°18'7 6.9
2017-Jan-17 13:33N 52°56' E 005°19'7 6.7
2017-Jan-17 12:33N 53°03' E 005°21'2 2.2
2017-Jan-17 11:33N 53°05' E 005°20'5 5.4
2017-Jan-17 10:33N 53°10' E 005°23'5 5.2
2017-Jan-17 09:33N 53°13' E 005°17'6 6.4
2017-Jan-17 08:33N 53°18' E 005°10'8 7.2
2017-Jan-17 07:31N 53°20' E 004°58'0 0.1
2017-Jan-17 05:29N 53°20' E 004°57'0 0.0
2017-Jan-17 04:33N 53°20' E 004°57'2 2.3
2017-Jan-17 03:33N 53°22' E 004°59'4 4.3
2017-Jan-17 02:33N 53°25' E 005°04'12 3.8
2017-Jan-16 23:27N 53°30' E 005°22'9 4.3
2017-Jan-16 21:22N 53°33' E 005°37'35 7.2
2017-Jan-16 16:26N 53°36' E 006°36'910.2
2017-Jan-16 15:33N 53°30' E 006°48'8 8.5
2017-Jan-16 14:33N 53°24' E 006°57'6 5.8
2017-Jan-16 13:33N 53°20' E 007°04'4 4.2
2017-Jan-16 12:32N 53°20' E 007°11'2 0.1
2017-Jan-15 22:25N 53°22' E 007°12'0 0.0
2017-Jan-15 19:25N 53°22' E 007°12'0 0.0
2017-Jan-14 22:24N 53°22' E 007°12'0 0.0
2017-Jan-14 21:27N 53°22' E 007°12'0 0.0
2017-Jan-14 20:21N 53°22' E 007°12'0 0.0
2017-Jan-14 19:27N 53°22' E 007°12'0 0.0
2017-Jan-14 18:27N 53°22' E 007°12'0 0.0
2017-Jan-14 17:33N 53°22' E 007°12'0 0.0
2017-Jan-14 16:24N 53°22' E 007°12'0 0.0
2017-Jan-14 15:27N 53°22' E 007°12'0 0.0
2017-Jan-14 14:27N 53°22' E 007°12'0 0.0
2017-Jan-14 12:27N 53°22' E 007°12'0 0.0
2017-Jan-13 21:17N 53°22' E 007°12'0 0.0
2017-Jan-13 20:11N 53°22' E 007°12'0 0.0
2017-Jan-13 19:11N 53°22' E 007°12'0 0.0
2017-Jan-13 18:26N 53°22' E 007°12'0 0.0
2017-Jan-13 17:29N 53°22' E 007°12'0 0.0
2017-Jan-13 16:26N 53°22' E 007°12'  
2017-Jan-09 23:31N 53°22' E 007°12'0 0.0
2017-Jan-09 22:31N 53°22' E 007°12'0 0.0
2017-Jan-09 20:04N 53°22' E 007°12'0 0.0
2017-Jan-09 19:22N 53°22' E 007°12'0 0.0
2017-Jan-09 18:31N 53°22' E 007°12'0 0.0
2017-Jan-09 17:31N 53°22' E 007°12'0 0.0
2017-Jan-09 16:28N 53°22' E 007°12'0 0.0
2017-Jan-09 15:28N 53°22' E 007°12'0 0.0
2017-Jan-08 22:12N 53°22' E 007°12'0 0.0
2017-Jan-08 21:27N 53°22' E 007°12'0 0.0
2017-Jan-08 20:09N 53°22' E 007°12'0 0.0
2017-Jan-08 19:27N 53°22' E 007°12'  

Dump ship's entire track history